sensor_id;sensor_type;location;lat;lon;timestamp;pressure;altitude;pressure_sealevel;temperature;humidity
11172;BME280;5642;50.830;12.082;2023-04-25T00:01:36;98628.41;;;9.09;40.40
11172;BME280;5642;50.830;12.082;2023-04-25T00:04:03;98631.06;;;9.08;40.45
11172;BME280;5642;50.830;12.082;2023-04-25T00:06:32;98631.97;;;9.07;40.68
11172;BME280;5642;50.830;12.082;2023-04-25T00:09:04;98637.25;;;9.05;40.67
11172;BME280;5642;50.830;12.082;2023-04-25T00:11:33;98627.84;;;9.01;40.29
11172;BME280;5642;50.830;12.082;2023-04-25T00:13:59;98631.31;;;9.01;40.70
11172;BME280;5642;50.830;12.082;2023-04-25T00:16:28;98625.31;;;8.98;40.42
11172;BME280;5642;50.830;12.082;2023-04-25T00:18:55;98606.13;;;8.76;40.42
11172;BME280;5642;50.830;12.082;2023-04-25T00:21:22;98620.72;;;8.81;40.56
11172;BME280;5642;50.830;12.082;2023-04-25T00:23:50;98598.72;;;8.65;40.95
11172;BME280;5642;50.830;12.082;2023-04-25T00:26:16;98636.22;;;8.86;40.64
11172;BME280;5642;50.830;12.082;2023-04-25T00:28:42;98627.63;;;8.82;40.57
11172;BME280;5642;50.830;12.082;2023-04-25T00:31:08;98642.06;;;8.92;40.38
11172;BME280;5642;50.830;12.082;2023-04-25T00:33:34;98615.38;;;8.84;40.70
11172;BME280;5642;50.830;12.082;2023-04-25T00:36:00;98643.50;;;9.01;40.54
11172;BME280;5642;50.830;12.082;2023-04-25T00:38:26;98631.41;;;8.98;40.40
11172;BME280;5642;50.830;12.082;2023-04-25T00:40:53;98634.81;;;9.00;40.41
11172;BME280;5642;50.830;12.082;2023-04-25T00:43:20;98627.03;;;8.99;40.44
11172;BME280;5642;50.830;12.082;2023-04-25T00:45:47;98625.28;;;8.99;40.62
11172;BME280;5642;50.830;12.082;2023-04-25T00:48:17;98634.69;;;9.03;40.41
11172;BME280;5642;50.830;12.082;2023-04-25T00:50:53;98625.88;;;9.06;40.58
11172;BME280;5642;50.830;12.082;2023-04-25T00:53:49;98631.63;;;9.16;40.83
11172;BME280;5642;50.830;12.082;2023-04-25T00:56:16;98629.69;;;9.21;40.15
11172;BME280;5642;50.830;12.082;2023-04-25T00:58:42;98635.34;;;9.32;40.21
11172;BME280;5642;50.830;12.082;2023-04-25T01:01:18;98614.94;;;9.41;40.64
11172;BME280;5642;50.830;12.082;2023-04-25T01:03:46;98613.47;;;9.56;39.92
11172;BME280;5642;50.830;12.082;2023-04-25T01:06:12;98612.06;;;9.69;40.24
11172;BME280;5642;50.830;12.082;2023-04-25T01:08:54;98620.13;;;9.85;40.13
11172;BME280;5642;50.830;12.082;2023-04-25T01:11:20;98625.06;;;9.93;40.10
11172;BME280;5642;50.830;12.082;2023-04-25T01:13:46;98588.00;;;9.81;39.96
11172;BME280;5642;50.830;12.082;2023-04-25T01:16:13;98605.31;;;10.06;40.39
11172;BME280;5642;50.830;12.082;2023-04-25T01:18:40;98614.88;;;10.07;40.43
11172;BME280;5642;50.830;12.082;2023-04-25T01:21:10;98612.25;;;10.07;40.40
11172;BME280;5642;50.830;12.082;2023-04-25T01:23:40;98608.84;;;10.05;40.26
11172;BME280;5642;50.830;12.082;2023-04-25T01:26:11;98610.66;;;10.03;40.26
11172;BME280;5642;50.830;12.082;2023-04-25T01:28:38;98616.75;;;10.03;40.53
11172;BME280;5642;50.830;12.082;2023-04-25T01:31:07;98618.25;;;10.09;40.33
11172;BME280;5642;50.830;12.082;2023-04-25T01:33:33;98611.06;;;10.14;40.34
11172;BME280;5642;50.830;12.082;2023-04-25T01:35:59;98609.22;;;10.16;40.64
11172;BME280;5642;50.830;12.082;2023-04-25T01:38:58;98601.94;;;10.24;40.51
11172;BME280;5642;50.830;12.082;2023-04-25T01:41:24;98585.75;;;10.14;40.58
11172;BME280;5642;50.830;12.082;2023-04-25T01:43:50;98599.13;;;10.29;40.52
11172;BME280;5642;50.830;12.082;2023-04-25T01:46:17;98598.13;;;10.31;40.34
11172;BME280;5642;50.830;12.082;2023-04-25T01:48:44;98605.47;;;10.43;40.48
11172;BME280;5642;50.830;12.082;2023-04-25T01:51:11;98607.66;;;10.52;40.11
11172;BME280;5642;50.830;12.082;2023-04-25T01:53:38;98608.19;;;10.60;40.25
11172;BME280;5642;50.830;12.082;2023-04-25T01:56:04;98596.69;;;10.65;40.24
11172;BME280;5642;50.830;12.082;2023-04-25T01:58:31;98612.69;;;10.77;40.30
11172;BME280;5642;50.830;12.082;2023-04-25T02:00:57;98604.66;;;10.80;40.07
11172;BME280;5642;50.830;12.082;2023-04-25T02:03:23;98600.16;;;10.84;40.34
11172;BME280;5642;50.830;12.082;2023-04-25T02:05:49;98600.66;;;10.92;40.13
11172;BME280;5642;50.830;12.082;2023-04-25T02:08:20;98605.34;;;11.04;40.13
11172;BME280;5642;50.830;12.082;2023-04-25T02:10:46;98606.91;;;11.08;40.17
11172;BME280;5642;50.830;12.082;2023-04-25T02:13:12;98604.06;;;11.13;39.96
11172;BME280;5642;50.830;12.082;2023-04-25T02:15:38;98616.66;;;11.23;40.02
11172;BME280;5642;50.830;12.082;2023-04-25T02:18:04;98613.78;;;11.29;40.16
11172;BME280;5642;50.830;12.082;2023-04-25T02:20:32;98607.31;;;11.36;40.00
11172;BME280;5642;50.830;12.082;2023-04-25T02:23:00;98601.00;;;11.41;40.17
11172;BME280;5642;50.830;12.082;2023-04-25T02:25:26;98594.09;;;11.38;40.18
11172;BME280;5642;50.830;12.082;2023-04-25T02:27:52;98585.56;;;11.34;39.96
11172;BME280;5642;50.830;12.082;2023-04-25T02:30:21;98608.56;;;11.47;40.01
11172;BME280;5642;50.830;12.082;2023-04-25T02:32:46;98588.19;;;11.34;40.26
11172;BME280;5642;50.830;12.082;2023-04-25T02:35:13;98605.63;;;11.53;40.00
11172;BME280;5642;50.830;12.082;2023-04-25T02:37:42;98604.59;;;11.57;40.08
11172;BME280;5642;50.830;12.082;2023-04-25T02:40:08;98595.00;;;11.56;40.25
11172;BME280;5642;50.830;12.082;2023-04-25T02:42:35;98596.06;;;11.52;40.23
11172;BME280;5642;50.830;12.082;2023-04-25T02:45:01;98594.78;;;11.60;40.01
11172;BME280;5642;50.830;12.082;2023-04-25T02:47:28;98596.84;;;11.54;40.33
11172;BME280;5642;50.830;12.082;2023-04-25T02:49:54;98589.78;;;11.56;40.10
11172;BME280;5642;50.830;12.082;2023-04-25T02:52:20;98593.31;;;11.55;39.97
11172;BME280;5642;50.830;12.082;2023-04-25T02:54:47;98590.63;;;11.56;40.16
11172;BME280;5642;50.830;12.082;2023-04-25T02:57:13;98582.75;;;11.56;40.17
11172;BME280;5642;50.830;12.082;2023-04-25T02:59:39;98588.75;;;11.58;40.33
11172;BME280;5642;50.830;12.082;2023-04-25T03:02:05;98578.19;;;11.60;40.35
11172;BME280;5642;50.830;12.082;2023-04-25T03:04:31;98569.47;;;11.59;40.45
11172;BME280;5642;50.830;12.082;2023-04-25T03:06:59;98560.84;;;11.57;40.57
11172;BME280;5642;50.830;12.082;2023-04-25T03:09:25;98572.94;;;11.60;40.24
11172;BME280;5642;50.830;12.082;2023-04-25T03:11:51;98575.63;;;11.58;40.58
11172;BME280;5642;50.830;12.082;2023-04-25T03:14:17;98571.88;;;11.64;40.63
11172;BME280;5642;50.830;12.082;2023-04-25T03:16:43;98573.59;;;11.65;40.45
11172;BME280;5642;50.830;12.082;2023-04-25T03:19:09;98575.25;;;11.66;40.68
11172;BME280;5642;50.830;12.082;2023-04-25T03:21:36;98575.44;;;11.63;40.53
11172;BME280;5642;50.830;12.082;2023-04-25T03:24:03;98569.88;;;11.69;40.46
11172;BME280;5642;50.830;12.082;2023-04-25T03:26:29;98556.16;;;11.64;40.81
11172;BME280;5642;50.830;12.082;2023-04-25T03:28:56;98566.91;;;11.76;40.67
11172;BME280;5642;50.830;12.082;2023-04-25T03:31:22;98549.69;;;11.71;40.62
11172;BME280;5642;50.830;12.082;2023-04-25T03:33:48;98578.81;;;11.84;40.73
11172;BME280;5642;50.830;12.082;2023-04-25T03:36:15;98585.69;;;11.86;40.45
11172;BME280;5642;50.830;12.082;2023-04-25T03:38:41;98569.28;;;11.81;40.51
11172;BME280;5642;50.830;12.082;2023-04-25T03:41:07;98567.94;;;11.72;40.79
11172;BME280;5642;50.830;12.082;2023-04-25T03:43:33;98536.28;;;11.58;40.57
11172;BME280;5642;50.830;12.082;2023-04-25T03:45:59;98559.38;;;11.69;40.61
11172;BME280;5642;50.830;12.082;2023-04-25T03:48:26;98573.16;;;11.74;40.66
11172;BME280;5642;50.830;12.082;2023-04-25T03:51:19;98571.25;;;11.77;40.89
11172;BME280;5642;50.830;12.082;2023-04-25T03:53:45;98560.91;;;11.73;40.88
11172;BME280;5642;50.830;12.082;2023-04-25T03:56:11;98563.31;;;11.79;40.67
11172;BME280;5642;50.830;12.082;2023-04-25T03:58:37;98554.28;;;11.66;40.78
11172;BME280;5642;50.830;12.082;2023-04-25T04:01:03;98582.72;;;11.75;40.67
11172;BME280;5642;50.830;12.082;2023-04-25T04:03:34;98567.50;;;11.64;40.67
11172;BME280;5642;50.830;12.082;2023-04-25T04:06:02;98576.56;;;11.76;40.71
11172;BME280;5642;50.830;12.082;2023-04-25T04:08:30;98581.66;;;11.79;40.70
11172;BME280;5642;50.830;12.082;2023-04-25T04:10:57;98577.03;;;11.84;40.60
11172;BME280;5642;50.830;12.082;2023-04-25T04:13:26;98573.63;;;11.82;40.89
11172;BME280;5642;50.830;12.082;2023-04-25T04:15:52;98583.97;;;11.85;40.48
11172;BME280;5642;50.830;12.082;2023-04-25T04:18:18;98585.50;;;11.89;40.70
11172;BME280;5642;50.830;12.082;2023-04-25T04:20:46;98580.56;;;11.83;40.70
11172;BME280;5642;50.830;12.082;2023-04-25T04:23:12;98588.59;;;11.80;40.98
11172;BME280;5642;50.830;12.082;2023-04-25T04:25:38;98585.28;;;11.76;41.20
11172;BME280;5642;50.830;12.082;2023-04-25T04:28:06;98588.88;;;11.74;41.16
11172;BME280;5642;50.830;12.082;2023-04-25T04:30:32;98595.25;;;11.68;41.23
11172;BME280;5642;50.830;12.082;2023-04-25T04:33:02;98597.94;;;11.67;41.26
11172;BME280;5642;50.830;12.082;2023-04-25T04:35:29;98601.44;;;11.67;40.97
11172;BME280;5642;50.830;12.082;2023-04-25T04:37:55;98602.16;;;11.71;41.27
11172;BME280;5642;50.830;12.082;2023-04-25T04:40:21;98596.97;;;11.69;41.30
11172;BME280;5642;50.830;12.082;2023-04-25T04:42:48;98591.38;;;11.77;40.96
11172;BME280;5642;50.830;12.082;2023-04-25T04:45:15;98604.72;;;11.90;40.90
11172;BME280;5642;50.830;12.082;2023-04-25T04:47:42;98602.41;;;12.01;41.06
11172;BME280;5642;50.830;12.082;2023-04-25T04:50:10;98602.75;;;12.12;40.87
11172;BME280;5642;50.830;12.082;2023-04-25T04:52:38;98606.19;;;12.30;40.67
11172;BME280;5642;50.830;12.082;2023-04-25T04:55:05;98608.50;;;12.53;40.55
11172;BME280;5642;50.830;12.082;2023-04-25T04:57:50;98608.59;;;12.84;40.43
11172;BME280;5642;50.830;12.082;2023-04-25T05:00:16;98605.38;;;13.11;40.38
11172;BME280;5642;50.830;12.082;2023-04-25T05:02:42;98616.28;;;13.36;40.01
11172;BME280;5642;50.830;12.082;2023-04-25T05:05:08;98617.56;;;13.60;39.77
11172;BME280;5642;50.830;12.082;2023-04-25T05:07:34;98618.19;;;13.80;39.79
11172;BME280;5642;50.830;12.082;2023-04-25T05:10:00;98607.16;;;13.89;39.74
11172;BME280;5642;50.830;12.082;2023-04-25T05:12:27;98613.41;;;14.02;39.56
11172;BME280;5642;50.830;12.082;2023-04-25T05:14:53;98610.41;;;14.08;39.76
11172;BME280;5642;50.830;12.082;2023-04-25T05:17:19;98616.16;;;14.15;39.70
11172;BME280;5642;50.830;12.082;2023-04-25T05:19:46;98614.22;;;14.18;39.60
11172;BME280;5642;50.830;12.082;2023-04-25T05:22:12;98614.13;;;14.20;39.39
11172;BME280;5642;50.830;12.082;2023-04-25T05:24:38;98612.44;;;14.19;39.57
11172;BME280;5642;50.830;12.082;2023-04-25T05:27:05;98608.19;;;14.16;39.78
11172;BME280;5642;50.830;12.082;2023-04-25T05:29:31;98604.91;;;14.13;39.64
11172;BME280;5642;50.830;12.082;2023-04-25T05:31:57;98610.06;;;14.14;39.74
11172;BME280;5642;50.830;12.082;2023-04-25T05:34:36;98607.41;;;14.14;39.58
11172;BME280;5642;50.830;12.082;2023-04-25T05:37:02;98613.44;;;14.16;39.76
11172;BME280;5642;50.830;12.082;2023-04-25T05:39:29;98607.72;;;14.24;39.62
11172;BME280;5642;50.830;12.082;2023-04-25T05:41:55;98612.19;;;14.37;39.46
11172;BME280;5642;50.830;12.082;2023-04-25T05:44:21;98606.81;;;14.55;39.29
11172;BME280;5642;50.830;12.082;2023-04-25T05:46:47;98617.44;;;14.96;38.92
11172;BME280;5642;50.830;12.082;2023-04-25T05:49:13;98592.31;;;15.04;38.64
11172;BME280;5642;50.830;12.082;2023-04-25T05:51:39;98620.53;;;15.31;38.63
11172;BME280;5642;50.830;12.082;2023-04-25T05:54:05;98616.00;;;15.33;38.50
11172;BME280;5642;50.830;12.082;2023-04-25T05:56:31;98615.69;;;15.37;38.58
11172;BME280;5642;50.830;12.082;2023-04-25T05:58:57;98609.22;;;15.28;38.67
11172;BME280;5642;50.830;12.082;2023-04-25T06:01:23;98631.06;;;15.31;38.69
11172;BME280;5642;50.830;12.082;2023-04-25T06:03:50;98633.53;;;15.34;38.89
11172;BME280;5642;50.830;12.082;2023-04-25T06:06:18;98632.78;;;15.32;38.80
11172;BME280;5642;50.830;12.082;2023-04-25T06:08:44;98631.63;;;15.36;38.60
11172;BME280;5642;50.830;12.082;2023-04-25T06:11:11;98629.53;;;15.69;38.35
11172;BME280;5642;50.830;12.082;2023-04-25T06:13:37;98628.22;;;16.28;37.71
11172;BME280;5642;50.830;12.082;2023-04-25T06:16:04;98627.59;;;16.50;37.18
11172;BME280;5642;50.830;12.082;2023-04-25T06:18:50;98630.19;;;16.77;37.20
11172;BME280;5642;50.830;12.082;2023-04-25T06:21:15;98634.00;;;17.11;36.88
11172;BME280;5642;50.830;12.082;2023-04-25T06:23:41;98625.69;;;18.01;36.13
11172;BME280;5642;50.830;12.082;2023-04-25T06:26:07;98635.50;;;19.04;35.57
11172;BME280;5642;50.830;12.082;2023-04-25T06:28:33;98632.75;;;20.36;34.73
11172;BME280;5642;50.830;12.082;2023-04-25T06:31:00;98631.31;;;21.74;33.89
11172;BME280;5642;50.830;12.082;2023-04-25T06:33:27;98620.19;;;23.04;33.36
11172;BME280;5642;50.830;12.082;2023-04-25T06:35:53;98618.72;;;23.84;32.62
11172;BME280;5642;50.830;12.082;2023-04-25T06:38:19;98610.69;;;24.80;32.27
11172;BME280;5642;50.830;12.082;2023-04-25T06:40:45;98621.81;;;25.87;32.12
11172;BME280;5642;50.830;12.082;2023-04-25T06:43:11;98613.34;;;26.65;31.67
11172;BME280;5642;50.830;12.082;2023-04-25T06:45:37;98599.22;;;26.79;31.70
11172;BME280;5642;50.830;12.082;2023-04-25T06:48:03;98614.19;;;26.65;31.96
11172;BME280;5642;50.830;12.082;2023-04-25T06:50:29;98607.94;;;26.89;32.05
11172;BME280;5642;50.830;12.082;2023-04-25T06:52:55;98621.69;;;27.18;31.82
11172;BME280;5642;50.830;12.082;2023-04-25T06:55:22;98621.88;;;27.09;31.88
11172;BME280;5642;50.830;12.082;2023-04-25T06:57:50;98622.06;;;26.67;32.26
11172;BME280;5642;50.830;12.082;2023-04-25T07:00:16;98600.91;;;26.07;32.38
11172;BME280;5642;50.830;12.082;2023-04-25T07:02:44;98624.22;;;25.56;32.63
11172;BME280;5642;50.830;12.082;2023-04-25T07:05:10;98615.97;;;25.50;32.69
11172;BME280;5642;50.830;12.082;2023-04-25T07:07:37;98594.34;;;25.93;32.30
11172;BME280;5642;50.830;12.082;2023-04-25T07:10:09;98611.16;;;26.20;32.30
11172;BME280;5642;50.830;12.082;2023-04-25T07:12:35;98618.28;;;25.87;32.38
11172;BME280;5642;50.830;12.082;2023-04-25T07:15:04;98619.22;;;25.27;32.81
11172;BME280;5642;50.830;12.082;2023-04-25T07:17:32;98644.66;;;24.72;33.33
11172;BME280;5642;50.830;12.082;2023-04-25T07:19:59;98640.63;;;24.32;33.30
11172;BME280;5642;50.830;12.082;2023-04-25T07:22:25;98635.78;;;24.00;33.28
11172;BME280;5642;50.830;12.082;2023-04-25T07:24:52;98639.94;;;24.30;33.17
11172;BME280;5642;50.830;12.082;2023-04-25T07:27:19;98636.78;;;24.96;32.87
11172;BME280;5642;50.830;12.082;2023-04-25T07:29:45;98641.00;;;24.99;32.78
11172;BME280;5642;50.830;12.082;2023-04-25T07:32:11;98638.56;;;24.44;33.04
11172;BME280;5642;50.830;12.082;2023-04-25T07:34:39;98653.88;;;23.61;33.44
11172;BME280;5642;50.830;12.082;2023-04-25T07:37:05;98658.66;;;22.64;33.83
11172;BME280;5642;50.830;12.082;2023-04-25T07:39:31;98663.16;;;21.76;34.56
11172;BME280;5642;50.830;12.082;2023-04-25T07:41:58;98664.09;;;20.95;35.14
11172;BME280;5642;50.830;12.082;2023-04-25T07:44:24;98653.03;;;20.26;35.12
11172;BME280;5642;50.830;12.082;2023-04-25T07:46:51;98648.19;;;19.67;35.66
11172;BME280;5642;50.830;12.082;2023-04-25T07:49:17;98661.44;;;19.34;35.69
11172;BME280;5642;50.830;12.082;2023-04-25T07:51:43;98681.69;;;19.01;35.92
11172;BME280;5642;50.830;12.082;2023-04-25T07:54:14;98665.72;;;18.68;35.74
11172;BME280;5642;50.830;12.082;2023-04-25T07:56:40;98671.03;;;18.44;35.92
11172;BME280;5642;50.830;12.082;2023-04-25T07:59:06;98666.16;;;18.27;35.86
11172;BME280;5642;50.830;12.082;2023-04-25T08:01:33;98679.41;;;18.27;35.93
11172;BME280;5642;50.830;12.082;2023-04-25T08:04:00;98683.63;;;18.29;35.63
11172;BME280;5642;50.830;12.082;2023-04-25T08:06:26;98681.72;;;18.31;35.51
11172;BME280;5642;50.830;12.082;2023-04-25T08:08:55;98677.03;;;18.35;35.42
11172;BME280;5642;50.830;12.082;2023-04-25T08:11:22;98687.13;;;18.30;35.49
11172;BME280;5642;50.830;12.082;2023-04-25T08:13:50;98686.84;;;18.22;35.48
11172;BME280;5642;50.830;12.082;2023-04-25T08:16:16;98695.75;;;18.21;35.52
11172;BME280;5642;50.830;12.082;2023-04-25T08:18:42;98682.78;;;18.05;35.29
11172;BME280;5642;50.830;12.082;2023-04-25T08:21:09;98690.34;;;17.98;35.57
11172;BME280;5642;50.830;12.082;2023-04-25T08:23:38;98700.22;;;17.96;35.59
11172;BME280;5642;50.830;12.082;2023-04-25T08:26:04;98711.47;;;17.87;35.63
11172;BME280;5642;50.830;12.082;2023-04-25T08:28:31;98716.50;;;17.79;35.56
11172;BME280;5642;50.830;12.082;2023-04-25T08:30:58;98717.38;;;17.67;35.73
11172;BME280;5642;50.830;12.082;2023-04-25T08:33:24;98718.00;;;17.45;35.71
11172;BME280;5642;50.830;12.082;2023-04-25T08:35:51;98731.56;;;17.15;35.96
11172;BME280;5642;50.830;12.082;2023-04-25T08:38:17;98712.06;;;16.78;36.02
11172;BME280;5642;50.830;12.082;2023-04-25T08:40:51;98729.81;;;16.64;36.19
11172;BME280;5642;50.830;12.082;2023-04-25T08:43:20;98739.72;;;16.48;36.38
11172;BME280;5642;50.830;12.082;2023-04-25T08:45:59;98750.97;;;16.37;36.21
11172;BME280;5642;50.830;12.082;2023-04-25T08:48:32;98756.84;;;16.28;36.10
11172;BME280;5642;50.830;12.082;2023-04-25T08:50:58;98755.66;;;16.19;36.18
11172;BME280;5642;50.830;12.082;2023-04-25T08:53:33;98764.94;;;16.12;36.28
11172;BME280;5642;50.830;12.082;2023-04-25T08:56:00;98759.78;;;15.96;36.42
11172;BME280;5642;50.830;12.082;2023-04-25T08:58:30;98774.22;;;15.91;36.47
11172;BME280;5642;50.830;12.082;2023-04-25T09:00:56;98780.09;;;15.82;36.43
11172;BME280;5642;50.830;12.082;2023-04-25T09:03:22;98782.34;;;15.74;36.46
11172;BME280;5642;50.830;12.082;2023-04-25T09:05:48;98778.22;;;15.70;36.33
11172;BME280;5642;50.830;12.082;2023-04-25T09:08:16;98789.34;;;15.75;36.33
11172;BME280;5642;50.830;12.082;2023-04-25T09:10:42;98785.00;;;15.74;36.24
11172;BME280;5642;50.830;12.082;2023-04-25T09:13:28;98782.81;;;15.66;36.18
11172;BME280;5642;50.830;12.082;2023-04-25T09:15:56;98796.69;;;15.55;36.36
11172;BME280;5642;50.830;12.082;2023-04-25T09:18:26;98788.25;;;15.49;36.48
11172;BME280;5642;50.830;12.082;2023-04-25T09:21:21;98795.69;;;15.42;36.38
11172;BME280;5642;50.830;12.082;2023-04-25T09:23:48;98798.72;;;15.36;36.41
11172;BME280;5642;50.830;12.082;2023-04-25T09:26:19;98807.38;;;15.38;36.45
11172;BME280;5642;50.830;12.082;2023-04-25T09:28:46;98806.63;;;15.36;36.47
11172;BME280;5642;50.830;12.082;2023-04-25T09:31:22;98810.13;;;15.37;36.38
11172;BME280;5642;50.830;12.082;2023-04-25T09:33:59;98794.34;;;15.21;36.38
11172;BME280;5642;50.830;12.082;2023-04-25T09:36:27;98825.56;;;15.28;36.46
11172;BME280;5642;50.830;12.082;2023-04-25T09:38:53;98822.44;;;15.22;36.61
11172;BME280;5642;50.830;12.082;2023-04-25T09:41:26;98818.38;;;15.16;36.66
11172;BME280;5642;50.830;12.082;2023-04-25T09:43:56;98831.56;;;15.16;36.61
11172;BME280;5642;50.830;12.082;2023-04-25T09:46:33;98830.16;;;15.11;36.70
11172;BME280;5642;50.830;12.082;2023-04-25T09:49:07;98823.63;;;15.02;36.70
11172;BME280;5642;50.830;12.082;2023-04-25T09:51:33;98829.19;;;14.98;36.86
11172;BME280;5642;50.830;12.082;2023-04-25T09:53:59;98830.38;;;14.92;36.80
11172;BME280;5642;50.830;12.082;2023-04-25T09:56:27;98836.75;;;14.88;36.75
11172;BME280;5642;50.830;12.082;2023-04-25T09:58:58;98828.00;;;14.87;36.79
11172;BME280;5642;50.830;12.082;2023-04-25T10:01:25;98830.84;;;14.84;36.76
11172;BME280;5642;50.830;12.082;2023-04-25T10:03:57;98838.91;;;14.81;36.89
11172;BME280;5642;50.830;12.082;2023-04-25T10:06:25;98832.22;;;14.76;36.94
11172;BME280;5642;50.830;12.082;2023-04-25T10:08:52;98834.00;;;14.75;36.83
11172;BME280;5642;50.830;12.082;2023-04-25T10:11:21;98831.06;;;14.80;36.91
11172;BME280;5642;50.830;12.082;2023-04-25T10:13:48;98834.50;;;14.82;36.77
11172;BME280;5642;50.830;12.082;2023-04-25T10:16:15;98821.81;;;14.73;36.93
11172;BME280;5642;50.830;12.082;2023-04-25T10:19:00;98833.00;;;14.92;36.70
11172;BME280;5642;50.830;12.082;2023-04-25T10:21:28;98839.63;;;14.99;36.87
11172;BME280;5642;50.830;12.082;2023-04-25T10:23:57;98837.88;;;15.14;36.76
11172;BME280;5642;50.830;12.082;2023-04-25T10:26:24;98839.81;;;15.40;36.49
11172;BME280;5642;50.830;12.082;2023-04-25T10:29:02;98830.91;;;15.71;36.38
11172;BME280;5642;50.830;12.082;2023-04-25T10:31:32;98834.13;;;16.04;36.09
11172;BME280;5642;50.830;12.082;2023-04-25T10:33:59;98831.88;;;16.39;36.05
11172;BME280;5642;50.830;12.082;2023-04-25T10:36:31;98830.69;;;16.84;35.94
11172;BME280;5642;50.830;12.082;2023-04-25T10:39:27;98823.78;;;17.21;35.73
11172;BME280;5642;50.830;12.082;2023-04-25T10:41:56;98819.16;;;17.38;35.63
11172;BME280;5642;50.830;12.082;2023-04-25T10:44:31;98828.13;;;17.48;35.80
11172;BME280;5642;50.830;12.082;2023-04-25T10:50:08;98822.72;;;17.24;36.12
11172;BME280;5642;50.830;12.082;2023-04-25T10:52:34;98835.53;;;17.05;36.17
11172;BME280;5642;50.830;12.082;2023-04-25T10:55:06;98825.38;;;16.84;36.04
11172;BME280;5642;50.830;12.082;2023-04-25T10:57:44;98841.13;;;16.73;36.27
11172;BME280;5642;50.830;12.082;2023-04-25T11:00:17;98841.25;;;16.58;36.33
11172;BME280;5642;50.830;12.082;2023-04-25T11:02:53;98849.66;;;16.50;36.25
11172;BME280;5642;50.830;12.082;2023-04-25T11:05:35;98836.69;;;16.33;36.46
11172;BME280;5642;50.830;12.082;2023-04-25T11:08:02;98846.81;;;16.26;36.67
11172;BME280;5642;50.830;12.082;2023-04-25T11:10:34;98853.59;;;16.30;36.52
11172;BME280;5642;50.830;12.082;2023-04-25T11:13:03;98848.00;;;16.35;36.49
11172;BME280;5642;50.830;12.082;2023-04-25T11:15:29;98849.31;;;16.42;36.34
11172;BME280;5642;50.830;12.082;2023-04-25T11:17:55;98852.63;;;16.45;36.49
11172;BME280;5642;50.830;12.082;2023-04-25T11:20:24;98848.28;;;16.44;36.52
11172;BME280;5642;50.830;12.082;2023-04-25T11:22:51;98858.09;;;16.42;36.30
11172;BME280;5642;50.830;12.082;2023-04-25T11:25:22;98854.22;;;16.48;36.45
11172;BME280;5642;50.830;12.082;2023-04-25T11:27:49;98849.25;;;16.56;36.43
11172;BME280;5642;50.830;12.082;2023-04-25T11:30:17;98853.59;;;16.71;36.23
11172;BME280;5642;50.830;12.082;2023-04-25T11:32:54;98855.59;;;16.95;36.22
11172;BME280;5642;50.830;12.082;2023-04-25T11:35:21;98848.34;;;17.11;36.13
11172;BME280;5642;50.830;12.082;2023-04-25T11:37:48;98853.66;;;17.23;35.92
11172;BME280;5642;50.830;12.082;2023-04-25T11:40:16;98850.16;;;17.23;35.86
11172;BME280;5642;50.830;12.082;2023-04-25T11:42:46;98853.00;;;17.20;35.92
11172;BME280;5642;50.830;12.082;2023-04-25T11:45:13;98872.16;;;17.23;36.07
11172;BME280;5642;50.830;12.082;2023-04-25T11:48:01;98867.41;;;17.29;35.84
11172;BME280;5642;50.830;12.082;2023-04-25T11:50:28;98867.63;;;17.26;35.86
11172;BME280;5642;50.830;12.082;2023-04-25T11:52:56;98873.13;;;17.35;35.88
11172;BME280;5642;50.830;12.082;2023-04-25T11:55:22;98853.47;;;17.39;35.85
11172;BME280;5642;50.830;12.082;2023-04-25T11:57:49;98870.22;;;17.65;35.84
11172;BME280;5642;50.830;12.082;2023-04-25T12:00:22;98878.72;;;17.83;35.74
11172;BME280;5642;50.830;12.082;2023-04-25T12:02:52;98880.59;;;18.06;35.67
11172;BME280;5642;50.830;12.082;2023-04-25T12:05:19;98870.50;;;18.24;35.62
11172;BME280;5642;50.830;12.082;2023-04-25T12:07:46;98866.16;;;18.23;35.48
11172;BME280;5642;50.830;12.082;2023-04-25T12:10:20;98873.91;;;18.26;35.40
11172;BME280;5642;50.830;12.082;2023-04-25T12:12:47;98864.91;;;18.16;35.47
11172;BME280;5642;50.830;12.082;2023-04-25T12:15:22;98878.78;;;18.19;35.59
11172;BME280;5642;50.830;12.082;2023-04-25T12:17:53;98855.16;;;18.16;35.45
11172;BME280;5642;50.830;12.082;2023-04-25T12:20:24;98859.66;;;18.27;35.49
11172;BME280;5642;50.830;12.082;2023-04-25T12:22:51;98880.44;;;18.46;35.44
11172;BME280;5642;50.830;12.082;2023-04-25T12:25:42;98882.44;;;18.42;35.33
11172;BME280;5642;50.830;12.082;2023-04-25T12:31:02;98880.91;;;18.14;35.48
11172;BME280;5642;50.830;12.082;2023-04-25T12:33:33;98869.78;;;18.09;35.64
11172;BME280;5642;50.830;12.082;2023-04-25T12:36:00;98883.88;;;18.10;35.56
11172;BME280;5642;50.830;12.082;2023-04-25T12:38:40;98870.22;;;18.03;35.39
11172;BME280;5642;50.830;12.082;2023-04-25T12:41:07;98899.78;;;18.22;35.44
11172;BME280;5642;50.830;12.082;2023-04-25T12:43:34;98890.28;;;18.44;35.26
11172;BME280;5642;50.830;12.082;2023-04-25T12:46:00;98889.66;;;18.76;35.07
11172;BME280;5642;50.830;12.082;2023-04-25T12:48:26;98885.81;;;19.04;34.74
11172;BME280;5642;50.830;12.082;2023-04-25T12:50:52;98884.63;;;19.32;34.59
11172;BME280;5642;50.830;12.082;2023-04-25T12:53:20;98873.13;;;19.55;34.69
11172;BME280;5642;50.830;12.082;2023-04-25T12:55:47;98887.31;;;19.78;34.45
11172;BME280;5642;50.830;12.082;2023-04-25T12:58:14;98880.06;;;19.91;34.18
11172;BME280;5642;50.830;12.082;2023-04-25T13:01:00;98884.66;;;20.12;34.02
11172;BME280;5642;50.830;12.082;2023-04-25T13:03:27;98882.59;;;20.26;34.16
11172;BME280;5642;50.830;12.082;2023-04-25T13:05:53;98868.13;;;20.42;33.84
11172;BME280;5642;50.830;12.082;2023-04-25T13:08:20;98878.13;;;20.49;34.17
11172;BME280;5642;50.830;12.082;2023-04-25T13:10:47;98880.34;;;20.44;33.95
11172;BME280;5642;50.830;12.082;2023-04-25T13:13:13;98875.50;;;20.38;34.15